Time;durP1;ratioP1;P1;durP2;ratioP2;P2;SDS_P1;SDS_P2;PMS_P1;PMS_P2;Temp;Humidity;BMP_temperature;BMP_pressure;BME280_temperature;BME280_humidity;BME280_pressure;Samples;Min_cycle;Max_cycle;Signal;HPM_P1;HPM_P2
2022/10/25 00:00:53;;;;;;;;;;;23.20;46.90;;;;;;492232;242;2196;-72
2022/10/25 00:02:55;;;;;;;;;;;23.20;47.00;;;;;;492257;242;1176;-72
2022/10/25 00:04:56;;;;;;;;;;;23.10;47.00;;;;;;492246;242;1308;-72
2022/10/25 00:06:57;;;;;;;;;;;23.20;46.90;;;;;;492281;242;1224;-72
2022/10/25 00:08:59;;;;;;;;;;;23.10;46.90;;;;;;492227;242;1197;-71
2022/10/25 00:11:00;;;;;;;;;;;23.20;46.90;;;;;;492258;242;1429;-71
2022/10/25 00:13:01;;;;;;;;;;;23.10;46.90;;;;;;492258;242;1218;-71
2022/10/25 00:15:03;;;;;;;;;;;23.20;46.90;;;;;;492252;242;1235;-72
2022/10/25 00:17:04;;;;;;;;;;;23.30;46.70;;;;;;492256;242;1162;-71
2022/10/25 00:19:05;;;;;;;;;;;23.30;46.60;;;;;;492227;242;1474;-72
2022/10/25 00:21:07;;;;;;;;;;;23.30;46.40;;;;;;492297;242;2172;-72
2022/10/25 00:23:08;;;;;;;;;;;23.40;46.30;;;;;;492216;242;1200;-71
2022/10/25 00:25:09;;;;;;;;;;;23.40;46.30;;;;;;492235;242;1176;-72
2022/10/25 00:27:11;;;;;;;;;;;23.40;46.10;;;;;;492237;242;1130;-72
2022/10/25 00:29:12;;;;;;;;;;;23.40;46.10;;;;;;492213;242;1220;-72
2022/10/25 00:31:13;;;;;;;;;;;23.50;46.10;;;;;;492189;242;1167;-71
2022/10/25 00:33:15;;;;;;;;;;;23.40;46.10;;;;;;492227;242;1171;-71
2022/10/25 00:35:16;;;;;;;;;;;23.50;46.00;;;;;;492274;242;1113;-72
2022/10/25 00:37:17;;;;;;;;;;;23.50;45.90;;;;;;492228;242;1313;-72
2022/10/25 00:39:19;;;;;;;;;;;23.50;45.80;;;;;;492202;242;1186;-72
2022/10/25 00:41:20;;;;;;;;;;;23.50;45.90;;;;;;492222;242;2147;-72
2022/10/25 00:43:21;;;;;;;;;;;23.40;45.80;;;;;;492203;242;1180;-72
2022/10/25 00:45:23;;;;;;;;;;;23.50;45.70;;;;;;492258;242;1324;-72
2022/10/25 00:47:24;;;;;;;;;;;23.50;45.60;;;;;;492270;242;1235;-72
2022/10/25 00:49:26;;;;;;;;;;;23.50;45.60;;;;;;492237;242;1260;-72
2022/10/25 00:51:27;;;;;;;;;;;23.50;45.60;;;;;;492260;242;1242;-72
2022/10/25 00:53:28;;;;;;;;;;;23.50;45.60;;;;;;492217;242;1333;-72
2022/10/25 00:55:29;;;;;;;;;;;23.50;45.50;;;;;;492263;242;1168;-71
2022/10/25 00:57:31;;;;;;;;;;;23.40;45.50;;;;;;492258;242;1209;-71
2022/10/25 00:59:32;;;;;;;;;;;23.50;45.50;;;;;;492253;242;1113;-71
2022/10/25 01:01:33;;;;;;;;;;;23.50;45.40;;;;;;492227;242;2203;-71
2022/10/25 01:03:35;;;;;;;;;;;23.50;45.40;;;;;;492270;242;1159;-72
2022/10/25 01:05:36;;;;;;;;;;;23.50;45.30;;;;;;492259;242;1162;-71
2022/10/25 01:07:37;;;;;;;;;;;23.50;45.20;;;;;;492342;242;1133;-71
2022/10/25 01:09:39;;;;;;;;;;;23.50;45.20;;;;;;492288;242;1160;-72
2022/10/25 01:11:40;;;;;;;;;;;23.50;45.20;;;;;;492248;242;1204;-72
2022/10/25 01:13:41;;;;;;;;;;;23.50;45.10;;;;;;492271;242;1090;-72
2022/10/25 01:15:43;;;;;;;;;;;23.50;45.10;;;;;;492234;242;1238;-72
2022/10/25 01:17:44;;;;;;;;;;;23.50;45.10;;;;;;492240;242;1146;-71
2022/10/25 01:19:46;;;;;;;;;;;23.50;45.10;;;;;;492245;242;1122;-71
2022/10/25 01:21:47;;;;;;;;;;;23.50;45.10;;;;;;492223;242;2144;-72
2022/10/25 01:23:48;;;;;;;;;;;23.50;45.10;;;;;;492223;242;1151;-72
2022/10/25 01:25:50;;;;;;;;;;;23.50;45.00;;;;;;492206;242;1165;-71
2022/10/25 01:27:51;;;;;;;;;;;23.50;44.90;;;;;;492266;242;1227;-71
2022/10/25 01:29:52;;;;;;;;;;;23.50;44.90;;;;;;492245;242;1191;-72
2022/10/25 01:31:53;;;;;;;;;;;23.50;44.90;;;;;;492240;242;1197;-72
2022/10/25 01:33:55;;;;;;;;;;;23.50;44.90;;;;;;492243;242;1292;-71
2022/10/25 01:35:56;;;;;;;;;;;23.50;44.90;;;;;;492293;242;1324;-71
2022/10/25 01:37:57;;;;;;;;;;;23.50;44.80;;;;;;492191;242;1175;-71
2022/10/25 01:39:59;;;;;;;;;;;23.40;44.80;;;;;;492254;242;1167;-72
2022/10/25 01:42:00;;;;;;;;;;;23.50;44.90;;;;;;492194;242;2204;-71
2022/10/25 01:44:02;;;;;;;;;;;23.50;44.80;;;;;;492245;242;1271;-71
2022/10/25 01:46:03;;;;;;;;;;;23.50;44.70;;;;;;492249;242;1198;-71
2022/10/25 01:48:04;;;;;;;;;;;23.50;44.70;;;;;;492233;242;1182;-71
2022/10/25 01:50:06;;;;;;;;;;;23.50;44.70;;;;;;492315;242;1115;-71
2022/10/25 01:52:07;;;;;;;;;;;23.50;44.70;;;;;;492039;242;1154;-71
2022/10/25 01:54:08;;;;;;;;;;;23.50;44.70;;;;;;492273;242;1162;-72
2022/10/25 01:56:10;;;;;;;;;;;23.50;44.50;;;;;;492085;242;1287;-71
2022/10/25 01:58:11;;;;;;;;;;;23.50;44.60;;;;;;492229;242;1167;-71
2022/10/25 02:00:12;;;;;;;;;;;23.50;44.60;;;;;;492333;242;1144;-72
2022/10/25 02:02:14;;;;;;;;;;;23.50;44.50;;;;;;492048;242;2191;-71
2022/10/25 02:04:15;;;;;;;;;;;23.50;44.40;;;;;;492266;242;1197;-71
2022/10/25 02:06:16;;;;;;;;;;;23.50;44.50;;;;;;492074;242;1251;-71
2022/10/25 02:08:18;;;;;;;;;;;23.50;44.50;;;;;;492278;242;1190;-71
2022/10/25 02:10:19;;;;;;;;;;;23.50;44.50;;;;;;492246;242;1190;-71
2022/10/25 02:12:20;;;;;;;;;;;23.60;44.30;;;;;;492092;242;1179;-72
2022/10/25 02:14:22;;;;;;;;;;;23.50;44.30;;;;;;492448;242;1109;-72
2022/10/25 02:16:23;;;;;;;;;;;23.60;44.20;;;;;;492251;242;1127;-72
2022/10/25 02:18:24;;;;;;;;;;;23.60;44.30;;;;;;492307;242;1117;-72
2022/10/25 02:20:26;;;;;;;;;;;23.60;44.20;;;;;;492266;242;1138;-72
2022/10/25 02:22:27;;;;;;;;;;;23.60;44.30;;;;;;492246;242;2152;-71
2022/10/25 02:24:28;;;;;;;;;;;23.60;44.30;;;;;;492228;242;1190;-71
2022/10/25 02:26:30;;;;;;;;;;;23.60;44.40;;;;;;492269;242;1201;-71
2022/10/25 02:28:31;;;;;;;;;;;23.60;44.40;;;;;;492268;242;1463;-71
2022/10/25 02:30:32;;;;;;;;;;;23.50;44.40;;;;;;492330;242;1222;-71
2022/10/25 02:32:34;;;;;;;;;;;23.50;44.40;;;;;;492260;242;1243;-71
2022/10/25 02:34:35;;;;;;;;;;;23.60;44.40;;;;;;492244;242;1168;-71
2022/10/25 02:36:36;;;;;;;;;;;23.50;44.40;;;;;;492208;242;1139;-72
2022/10/25 02:38:38;;;;;;;;;;;23.50;44.40;;;;;;492294;242;1129;-72
2022/10/25 02:40:39;;;;;;;;;;;23.50;44.40;;;;;;492248;242;1121;-72
2022/10/25 02:42:40;;;;;;;;;;;23.60;44.50;;;;;;492283;242;2184;-72
2022/10/25 02:44:42;;;;;;;;;;;23.60;44.60;;;;;;492362;242;1199;-72
2022/10/25 02:46:43;;;;;;;;;;;23.50;44.50;;;;;;492281;242;1216;-72
2022/10/25 02:48:44;;;;;;;;;;;23.50;44.60;;;;;;492351;242;1200;-71
2022/10/25 02:50:46;;;;;;;;;;;23.60;44.60;;;;;;492303;242;1124;-71
2022/10/25 02:52:47;;;;;;;;;;;23.60;44.60;;;;;;492192;242;1181;-71
2022/10/25 02:54:48;;;;;;;;;;;23.50;44.60;;;;;;492327;242;1127;-71
2022/10/25 02:56:51;;;;;;;;;;;23.50;44.60;;;;;;492312;242;1270;-71
2022/10/25 02:58:51;;;;;;;;;;;23.60;44.60;;;;;;492253;242;1463;-71
2022/10/25 03:00:52;;;;;;;;;;;23.60;44.60;;;;;;492292;242;1186;-71
2022/10/25 03:02:54;;;;;;;;;;;23.50;44.70;;;;;;492236;242;2179;-71
2022/10/25 03:04:55;;;;;;;;;;;23.50;44.60;;;;;;492243;242;1159;-71
2022/10/25 03:06:57;;;;;;;;;;;23.60;44.70;;;;;;492190;242;1132;-71
2022/10/25 03:08:58;;;;;;;;;;;23.60;44.60;;;;;;492236;242;1180;-72
2022/10/25 03:10:59;;;;;;;;;;;23.60;44.60;;;;;;492245;242;1311;-72
2022/10/25 03:13:01;;;;;;;;;;;23.60;44.50;;;;;;492252;242;1259;-71
2022/10/25 03:15:02;;;;;;;;;;;23.60;44.70;;;;;;492216;242;1225;-71
2022/10/25 03:17:05;;;;;;;;;;;23.60;44.70;;;;;;492242;242;1234;-72
2022/10/25 03:19:05;;;;;;;;;;;23.60;44.70;;;;;;492212;242;1416;-71
2022/10/25 03:21:06;;;;;;;;;;;23.60;44.70;;;;;;492181;242;1147;-71
2022/10/25 03:23:07;;;;;;;;;;;23.50;44.70;;;;;;492202;242;2152;-72
2022/10/25 03:25:09;;;;;;;;;;;23.50;44.80;;;;;;492212;242;1240;-71
2022/10/25 03:27:10;;;;;;;;;;;23.50;44.80;;;;;;492196;242;1175;-71
2022/10/25 03:29:11;;;;;;;;;;;23.50;44.80;;;;;;492239;242;1239;-71
2022/10/25 03:31:13;;;;;;;;;;;23.50;44.70;;;;;;492226;242;1157;-71
2022/10/25 03:33:14;;;;;;;;;;;23.60;44.80;;;;;;492277;242;1235;-71
2022/10/25 03:35:15;;;;;;;;;;;23.50;44.80;;;;;;492265;242;1208;-71
2022/10/25 03:37:17;;;;;;;;;;;23.50;44.80;;;;;;492264;242;1123;-71
2022/10/25 03:39:18;;;;;;;;;;;23.50;44.80;;;;;;492231;242;1141;-72
2022/10/25 03:41:19;;;;;;;;;;;23.60;44.80;;;;;;492286;242;1157;-72
2022/10/25 03:43:21;;;;;;;;;;;23.60;44.80;;;;;;492233;242;2192;-72
2022/10/25 03:45:22;;;;;;;;;;;23.60;44.70;;;;;;492205;242;1183;-72
2022/10/25 03:47:23;;;;;;;;;;;23.60;44.60;;;;;;492203;242;1171;-72
2022/10/25 03:49:25;;;;;;;;;;;23.60;44.60;;;;;;492261;242;1217;-72
2022/10/25 03:51:26;;;;;;;;;;;23.60;44.50;;;;;;492221;242;1245;-71
2022/10/25 03:53:27;;;;;;;;;;;23.70;44.50;;;;;;492253;242;1170;-71
2022/10/25 03:55:29;;;;;;;;;;;23.70;44.50;;;;;;492231;242;1262;-72
2022/10/25 03:57:30;;;;;;;;;;;23.70;44.50;;;;;;492266;242;1195;-71
2022/10/25 03:59:31;;;;;;;;;;;23.70;44.40;;;;;;492259;242;1133;-72
2022/10/25 04:01:33;;;;;;;;;;;23.70;44.40;;;;;;492309;242;1160;-72
2022/10/25 04:03:34;;;;;;;;;;;23.70;44.50;;;;;;492208;242;2195;-73
2022/10/25 04:05:35;;;;;;;;;;;23.70;44.50;;;;;;492280;242;1247;-74
2022/10/25 04:07:37;;;;;;;;;;;23.60;44.40;;;;;;492199;242;1226;-74
2022/10/25 04:09:38;;;;;;;;;;;23.60;44.60;;;;;;492206;242;1218;-74
2022/10/25 04:11:39;;;;;;;;;;;23.60;44.70;;;;;;492235;242;1157;-74
2022/10/25 04:13:41;;;;;;;;;;;23.70;44.50;;;;;;492224;242;1143;-74
2022/10/25 04:15:42;;;;;;;;;;;23.70;44.50;;;;;;492236;242;1187;-74
2022/10/25 04:17:43;;;;;;;;;;;23.70;44.60;;;;;;492234;242;1216;-74
2022/10/25 04:19:45;;;;;;;;;;;23.60;44.50;;;;;;492276;242;1142;-74
2022/10/25 04:21:46;;;;;;;;;;;23.70;44.40;;;;;;492253;242;1184;-74
2022/10/25 04:23:47;;;;;;;;;;;23.60;44.50;;;;;;492159;242;2144;-74
2022/10/25 04:25:48;;;;;;;;;;;23.70;44.40;;;;;;492055;242;1176;-74
2022/10/25 04:27:50;;;;;;;;;;;23.70;44.40;;;;;;492117;242;1273;-74
2022/10/25 04:29:51;;;;;;;;;;;23.60;44.50;;;;;;492297;242;1207;-74
2022/10/25 04:31:52;;;;;;;;;;;23.60;44.50;;;;;;492071;242;1149;-74
2022/10/25 04:33:54;;;;;;;;;;;23.60;44.50;;;;;;492198;242;1176;-74
2022/10/25 04:35:55;;;;;;;;;;;23.60;44.50;;;;;;492265;242;1195;-74
2022/10/25 04:37:57;;;;;;;;;;;23.60;44.50;;;;;;492092;242;1228;-74
2022/10/25 04:39:58;;;;;;;;;;;23.50;44.50;;;;;;492122;242;1159;-74
2022/10/25 04:41:59;;;;;;;;;;;23.60;44.50;;;;;;492150;242;1109;-74
2022/10/25 04:44:01;;;;;;;;;;;23.60;44.50;;;;;;492092;242;2124;-74
2022/10/25 04:46:02;;;;;;;;;;;23.60;44.50;;;;;;492119;242;1116;-74
2022/10/25 04:48:03;;;;;;;;;;;23.50;44.40;;;;;;492182;242;1183;-74
2022/10/25 04:50:05;;;;;;;;;;;23.60;44.40;;;;;;492063;242;1233;-74
2022/10/25 04:52:06;;;;;;;;;;;23.60;44.40;;;;;;492096;242;1262;-74
2022/10/25 04:54:07;;;;;;;;;;;23.60;44.30;;;;;;492003;242;1231;-74
2022/10/25 04:56:09;;;;;;;;;;;23.60;44.30;;;;;;492030;242;1139;-74
2022/10/25 04:58:10;;;;;;;;;;;23.60;44.40;;;;;;492143;242;1239;-74
2022/10/25 05:00:11;;;;;;;;;;;23.60;44.20;;;;;;491912;242;1091;-74
2022/10/25 05:02:13;;;;;;;;;;;23.60;44.40;;;;;;492205;242;1188;-74
2022/10/25 05:04:14;;;;;;;;;;;23.60;44.40;;;;;;492110;242;2184;-74
2022/10/25 05:06:15;;;;;;;;;;;23.60;44.30;;;;;;492198;242;1345;-74
2022/10/25 05:08:16;;;;;;;;;;;23.60;44.30;;;;;;492127;242;1191;-74
2022/10/25 05:10:18;;;;;;;;;;;23.60;44.20;;;;;;492201;242;1121;-74
2022/10/25 05:12:19;;;;;;;;;;;23.70;44.20;;;;;;492149;242;1279;-74
2022/10/25 05:14:21;;;;;;;;;;;23.60;44.10;;;;;;492110;242;1167;-74
2022/10/25 05:16:23;;;;;;;;;;;23.60;44.20;;;;;;492153;242;1246;-74
2022/10/25 05:18:23;;;;;;;;;;;23.70;44.30;;;;;;492104;242;1473;-74
2022/10/25 05:20:24;;;;;;;;;;;23.60;44.20;;;;;;492125;242;1141;-74
2022/10/25 05:22:26;;;;;;;;;;;23.60;44.30;;;;;;492161;242;1181;-74
2022/10/25 05:24:27;;;;;;;;;;;23.60;44.30;;;;;;492139;242;2188;-74
2022/10/25 05:26:29;;;;;;;;;;;23.60;44.30;;;;;;492185;242;1166;-74
2022/10/25 05:28:30;;;;;;;;;;;23.60;44.30;;;;;;492129;242;1147;-74
2022/10/25 05:30:31;;;;;;;;;;;23.60;44.30;;;;;;492164;242;1165;-74
2022/10/25 05:32:32;;;;;;;;;;;23.60;44.30;;;;;;491959;242;1333;-74
2022/10/25 05:34:34;;;;;;;;;;;23.60;44.30;;;;;;492165;242;1198;-74
2022/10/25 05:36:35;;;;;;;;;;;23.60;44.30;;;;;;492115;242;1147;-74
2022/10/25 05:38:36;;;;;;;;;;;23.60;44.30;;;;;;492185;242;1281;-74
2022/10/25 05:40:38;;;;;;;;;;;23.60;44.20;;;;;;492187;242;1231;-74
2022/10/25 05:42:39;;;;;;;;;;;23.60;44.30;;;;;;492032;242;2196;-74
2022/10/25 05:44:40;;;;;;;;;;;23.60;44.40;;;;;;492192;242;1182;-74
2022/10/25 05:46:42;;;;;;;;;;;23.60;44.40;;;;;;492038;242;1223;-74
2022/10/25 05:48:43;;;;;;;;;;;23.60;44.40;;;;;;492134;242;1146;-74
2022/10/25 05:50:44;;;;;;;;;;;23.60;44.50;;;;;;492040;242;1114;-74
2022/10/25 05:52:46;;;;;;;;;;;23.60;44.50;;;;;;492103;242;1181;-74
2022/10/25 05:54:47;;;;;;;;;;;23.60;44.50;;;;;;492084;242;1102;-74
2022/10/25 05:56:48;;;;;;;;;;;23.60;44.50;;;;;;492115;242;1087;-74
2022/10/25 05:58:50;;;;;;;;;;;23.60;44.50;;;;;;492122;242;1133;-74
2022/10/25 06:00:51;;;;;;;;;;;23.60;44.50;;;;;;492069;242;1170;-74
2022/10/25 06:02:52;;;;;;;;;;;23.70;44.40;;;;;;492037;242;2187;-74
2022/10/25 06:04:54;;;;;;;;;;;23.70;44.50;;;;;;492032;242;1189;-74
2022/10/25 06:06:56;;;;;;;;;;;23.70;44.50;;;;;;491622;242;1265;-74
2022/10/25 06:08:56;;;;;;;;;;;23.60;44.60;;;;;;491891;242;1473;-74
2022/10/25 06:10:58;;;;;;;;;;;23.70;44.60;;;;;;491980;242;1198;-74
2022/10/25 06:13:00;;;;;;;;;;;23.80;44.50;;;;;;491989;242;1135;-74
2022/10/25 06:15:01;;;;;;;;;;;23.70;44.60;;;;;;492135;242;1180;-75
2022/10/25 06:17:02;;;;;;;;;;;23.70;44.60;;;;;;492079;242;1216;-74
2022/10/25 06:19:03;;;;;;;;;;;23.70;44.60;;;;;;492036;242;1208;-75
2022/10/25 06:21:05;;;;;;;;;;;23.70;44.60;;;;;;491773;242;1230;-75
2022/10/25 06:23:06;;;;;;;;;;;23.70;44.60;;;;;;491560;242;2180;-74
2022/10/25 06:25:07;;;;;;;;;;;23.70;44.70;;;;;;491567;242;1245;-74
2022/10/25 06:27:09;;;;;;;;;;;23.80;44.70;;;;;;491581;242;1143;-74
2022/10/25 06:29:10;;;;;;;;;;;23.80;44.70;;;;;;491729;242;1146;-74
2022/10/25 06:31:11;;;;;;;;;;;23.80;44.70;;;;;;491595;242;1191;-74
2022/10/25 06:33:13;;;;;;;;;;;23.80;44.70;;;;;;491697;242;1437;-74
2022/10/25 06:35:14;;;;;;;;;;;23.80;44.70;;;;;;491566;242;1344;-74
2022/10/25 06:37:15;;;;;;;;;;;23.80;44.70;;;;;;491514;242;1173;-74
2022/10/25 06:39:17;;;;;;;;;;;23.80;44.70;;;;;;491775;242;1267;-74
2022/10/25 06:41:18;;;;;;;;;;;23.90;44.70;;;;;;491606;242;1272;-74
2022/10/25 06:43:19;;;;;;;;;;;23.80;44.70;;;;;;491573;242;2196;-74
2022/10/25 06:45:21;;;;;;;;;;;23.80;44.70;;;;;;491629;242;1124;-74
2022/10/25 06:47:22;;;;;;;;;;;23.80;44.80;;;;;;491620;242;1854;-74
2022/10/25 06:49:23;;;;;;;;;;;23.80;44.80;;;;;;491604;242;1122;-74
2022/10/25 06:51:25;;;;;;;;;;;23.80;44.70;;;;;;491619;242;1231;-74
2022/10/25 06:53:26;;;;;;;;;;;23.80;44.70;;;;;;491565;242;1277;-74
2022/10/25 06:55:27;;;;;;;;;;;23.80;44.70;;;;;;491581;242;1203;-74
2022/10/25 06:57:29;;;;;;;;;;;23.90;44.80;;;;;;491585;242;1765;-74
2022/10/25 06:59:30;;;;;;;;;;;23.80;44.80;;;;;;491436;242;1149;-74
2022/10/25 07:01:31;;;;;;;;;;;23.80;44.80;;;;;;491349;242;1097;-74
2022/10/25 07:03:34;;;;;;;;;;;23.80;44.80;;;;;;491178;242;2180;-74
2022/10/25 07:05:35;;;;;;;;;;;23.80;44.90;;;;;;491520;242;1063;-74
2022/10/25 07:07:36;;;;;;;;;;;23.80;45.00;;;;;;491599;242;1211;-74
2022/10/25 07:09:38;;;;;;;;;;;23.80;45.00;;;;;;491710;242;1263;-74
2022/10/25 07:11:39;;;;;;;;;;;23.80;45.00;;;;;;491622;242;1140;-74
2022/10/25 07:13:40;;;;;;;;;;;23.80;45.00;;;;;;491614;242;1392;-74
2022/10/25 07:15:42;;;;;;;;;;;23.70;45.00;;;;;;491509;242;1186;-74
2022/10/25 07:17:43;;;;;;;;;;;23.80;45.10;;;;;;491525;242;1241;-74
2022/10/25 07:19:44;;;;;;;;;;;23.80;45.20;;;;;;491540;242;1370;-74
2022/10/25 07:21:46;;;;;;;;;;;23.70;45.20;;;;;;491448;242;1158;-74
2022/10/25 07:23:47;;;;;;;;;;;23.70;45.30;;;;;;491589;242;2160;-74
2022/10/25 07:25:48;;;;;;;;;;;23.70;45.40;;;;;;491370;242;1188;-74
2022/10/25 07:27:50;;;;;;;;;;;23.80;45.30;;;;;;491610;242;1256;-74
2022/10/25 07:29:51;;;;;;;;;;;23.80;45.20;;;;;;491846;242;1119;-75
2022/10/25 07:31:52;;;;;;;;;;;23.80;45.20;;;;;;491644;242;1073;-74
2022/10/25 07:33:54;;;;;;;;;;;23.90;45.20;;;;;;491589;242;1160;-74
2022/10/25 07:35:55;;;;;;;;;;;23.90;45.10;;;;;;491361;242;1134;-75
2022/10/25 07:37:56;;;;;;;;;;;23.90;45.20;;;;;;491674;242;1292;-74
2022/10/25 07:39:58;;;;;;;;;;;23.80;45.30;;;;;;491796;242;1119;-74
2022/10/25 07:41:59;;;;;;;;;;;23.70;45.50;;;;;;491458;242;1425;-74
2022/10/25 07:44:00;;;;;;;;;;;23.60;45.80;;;;;;491481;242;2145;-74
2022/10/25 07:46:02;;;;;;;;;;;23.60;45.90;;;;;;491373;242;1186;-74
2022/10/25 07:48:03;;;;;;;;;;;23.60;45.90;;;;;;491496;242;1180;-74
2022/10/25 07:50:04;;;;;;;;;;;23.60;46.00;;;;;;491495;242;1191;-74
2022/10/25 07:52:06;;;;;;;;;;;23.70;45.80;;;;;;491751;242;1216;-74
2022/10/25 07:54:07;;;;;;;;;;;23.60;46.00;;;;;;491560;242;1146;-74
2022/10/25 07:56:08;;;;;;;;;;;23.60;46.20;;;;;;491546;242;1118;-74
2022/10/25 07:58:10;;;;;;;;;;;23.60;46.10;;;;;;491489;242;1148;-74
2022/10/25 08:00:11;;;;;;;;;;;23.60;46.00;;;;;;491523;242;1127;-74
2022/10/25 08:02:12;;;;;;;;;;;23.70;46.00;;;;;;491516;242;1269;-74
2022/10/25 08:04:13;;;;;;;;;;;23.70;45.80;;;;;;491699;242;2191;-74
2022/10/25 08:06:15;;;;;;;;;;;23.70;45.90;;;;;;491503;242;1167;-74
2022/10/25 08:08:16;;;;;;;;;;;23.70;46.10;;;;;;491522;242;1143;-74
2022/10/25 08:10:18;;;;;;;;;;;23.70;46.30;;;;;;491666;242;1298;-72
2022/10/25 08:12:19;;;;;;;;;;;23.70;46.40;;;;;;491703;242;1201;-74
2022/10/25 08:14:20;;;;;;;;;;;23.80;46.30;;;;;;491464;242;1296;-74
2022/10/25 08:16:21;;;;;;;;;;;23.80;46.40;;;;;;491681;242;1154;-74
2022/10/25 08:18:23;;;;;;;;;;;23.80;46.40;;;;;;491564;242;1144;-74
2022/10/25 08:20:24;;;;;;;;;;;23.80;46.40;;;;;;491367;242;1166;-73
2022/10/25 08:22:25;;;;;;;;;;;23.80;46.40;;;;;;491764;242;1216;-74
2022/10/25 08:24:27;;;;;;;;;;;23.80;46.30;;;;;;491396;242;2192;-73
2022/10/25 08:26:28;;;;;;;;;;;23.80;46.40;;;;;;491667;242;1210;-74
2022/10/25 08:28:30;;;;;;;;;;;23.80;46.40;;;;;;491698;242;1186;-73
2022/10/25 08:30:31;;;;;;;;;;;23.80;46.40;;;;;;491403;242;1139;-73
2022/10/25 08:32:33;;;;;;;;;;;23.80;46.50;;;;;;491308;242;1402;-73
2022/10/25 08:34:34;;;;;;;;;;;23.80;46.60;;;;;;491305;242;1349;-73
2022/10/25 08:36:35;;;;;;;;;;;23.70;46.60;;;;;;491301;242;1121;-73
2022/10/25 08:38:36;;;;;;;;;;;23.80;46.50;;;;;;491441;242;1193;-74
2022/10/25 08:40:37;;;;;;;;;;;23.80;46.80;;;;;;491443;242;1152;-74
2022/10/25 08:42:39;;;;;;;;;;;23.80;46.60;;;;;;491552;242;1188;-73
2022/10/25 08:44:40;;;;;;;;;;;23.70;46.50;;;;;;491323;242;2148;-73
2022/10/25 08:46:41;;;;;;;;;;;23.80;46.40;;;;;;491399;242;1141;-74
2022/10/25 08:48:43;;;;;;;;;;;23.90;46.30;;;;;;491521;242;1176;-74
2022/10/25 08:50:44;;;;;;;;;;;23.90;46.30;;;;;;491622;242;1160;-74
2022/10/25 08:52:45;;;;;;;;;;;23.90;46.30;;;;;;491545;242;1193;-73
2022/10/25 08:54:47;;;;;;;;;;;23.80;46.20;;;;;;491631;242;1152;-74
2022/10/25 08:56:48;;;;;;;;;;;23.80;46.40;;;;;;491811;242;1179;-74
2022/10/25 08:58:49;;;;;;;;;;;23.80;46.50;;;;;;491550;242;1152;-73
2022/10/25 09:00:51;;;;;;;;;;;23.80;46.50;;;;;;491564;242;1156;-74
2022/10/25 09:02:52;;;;;;;;;;;23.70;46.50;;;;;;491581;242;1204;-74
2022/10/25 09:04:54;;;;;;;;;;;23.80;46.50;;;;;;491468;242;2192;-74
2022/10/25 09:06:55;;;;;;;;;;;23.70;46.50;;;;;;491497;242;1099;-73
2022/10/25 09:08:57;;;;;;;;;;;23.90;46.50;;;;;;491746;242;1207;-73
2022/10/25 09:10:58;;;;;;;;;;;23.80;46.30;;;;;;491597;242;1219;-73
2022/10/25 09:13:00;;;;;;;;;;;23.90;46.30;;;;;;491619;242;1164;-73
2022/10/25 09:15:01;;;;;;;;;;;23.80;46.40;;;;;;491636;242;1145;-74
2022/10/25 09:17:03;;;;;;;;;;;23.80;46.50;;;;;;491551;242;1194;-74
2022/10/25 09:19:04;;;;;;;;;;;23.70;46.50;;;;;;491530;242;1171;-73
2022/10/25 09:21:05;;;;;;;;;;;23.80;46.70;;;;;;491605;242;1206;-73
2022/10/25 09:23:06;;;;;;;;;;;23.80;46.60;;;;;;491590;242;1280;-73
2022/10/25 09:25:08;;;;;;;;;;;23.80;46.50;;;;;;491403;242;2200;-73
2022/10/25 09:27:09;;;;;;;;;;;23.80;46.60;;;;;;491401;242;1144;-73
2022/10/25 09:29:10;;;;;;;;;;;23.80;46.50;;;;;;491582;242;1199;-73
2022/10/25 09:31:12;;;;;;;;;;;23.70;46.70;;;;;;491515;242;1097;-73
2022/10/25 09:33:13;;;;;;;;;;;23.80;46.60;;;;;;491610;242;1193;-73
2022/10/25 09:35:14;;;;;;;;;;;23.80;46.60;;;;;;491499;242;1270;-74
2022/10/25 09:37:16;;;;;;;;;;;23.80;46.60;;;;;;491435;242;1191;-73
2022/10/25 09:39:17;;;;;;;;;;;23.80;46.70;;;;;;491568;242;1247;-73
2022/10/25 09:41:18;;;;;;;;;;;23.80;46.60;;;;;;490212;242;1331;-73
2022/10/25 09:43:20;;;;;;;;;;;23.80;46.60;;;;;;491446;242;1176;-73
2022/10/25 09:45:21;;;;;;;;;;;23.90;46.70;;;;;;491442;242;2199;-74
2022/10/25 09:47:22;;;;;;;;;;;23.90;46.60;;;;;;491672;242;1194;-73
2022/10/25 09:49:24;;;;;;;;;;;23.90;46.50;;;;;;491754;242;1159;-73
2022/10/25 09:51:25;;;;;;;;;;;23.90;46.60;;;;;;491608;242;1173;-73
2022/10/25 09:53:26;;;;;;;;;;;23.90;46.60;;;;;;491601;242;1218;-74
2022/10/25 09:55:28;;;;;;;;;;;23.90;46.60;;;;;;491677;242;1181;-73
2022/10/25 09:57:29;;;;;;;;;;;23.90;46.80;;;;;;491588;242;1331;-74
2022/10/25 09:59:30;;;;;;;;;;;23.80;46.60;;;;;;491466;242;1149;-74
2022/10/25 10:01:32;;;;;;;;;;;23.90;46.60;;;;;;491649;242;1162;-74
2022/10/25 10:03:34;;;;;;;;;;;23.80;46.60;;;;;;491557;242;1263;-74
2022/10/25 10:05:34;;;;;;;;;;;23.80;46.70;;;;;;491747;242;2199;-73
2022/10/25 10:07:36;;;;;;;;;;;23.80;46.80;;;;;;491617;242;1137;-73
2022/10/25 10:09:37;;;;;;;;;;;23.80;46.80;;;;;;491497;242;1161;-73
2022/10/25 10:11:38;;;;;;;;;;;23.90;46.80;;;;;;491440;242;1171;-74
2022/10/25 10:13:39;;;;;;;;;;;23.90;46.60;;;;;;491333;242;1277;-73
2022/10/25 10:15:41;;;;;;;;;;;23.90;46.70;;;;;;491427;242;1237;-73
2022/10/25 10:17:42;;;;;;;;;;;23.90;46.50;;;;;;491462;242;1251;-73
2022/10/25 10:19:44;;;;;;;;;;;23.90;46.60;;;;;;491526;242;1068;-74
2022/10/25 10:21:45;;;;;;;;;;;23.90;46.50;;;;;;491509;242;1418;-74
2022/10/25 10:23:46;;;;;;;;;;;24.00;46.40;;;;;;491743;242;1077;-74
2022/10/25 10:25:47;;;;;;;;;;;24.00;46.20;;;;;;491926;242;2199;-74
2022/10/25 10:27:49;;;;;;;;;;;24.00;46.10;;;;;;491665;242;1142;-74
2022/10/25 10:29:50;;;;;;;;;;;24.10;46.10;;;;;;491441;242;1151;-73
2022/10/25 10:31:51;;;;;;;;;;;24.10;46.00;;;;;;491443;242;1180;-73
2022/10/25 10:33:53;;;;;;;;;;;24.10;46.00;;;;;;491345;242;1348;-74
2022/10/25 10:35:54;;;;;;;;;;;24.10;46.10;;;;;;491536;242;1323;-74
2022/10/25 10:37:55;;;;;;;;;;;24.10;46.20;;;;;;491478;242;1628;-73
2022/10/25 10:39:57;;;;;;;;;;;24.10;46.00;;;;;;491370;242;1271;-74
2022/10/25 10:42:02;;;;;;;;;;;24.10;46.00;;;;;;491508;242;1197;-74
2022/10/25 10:44:01;;;;;;;;;;;24.10;45.90;;;;;;491568;242;1324;-74
2022/10/25 10:46:03;;;;;;;;;;;24.10;45.90;;;;;;491398;242;2188;-74
2022/10/25 10:48:04;;;;;;;;;;;24.10;46.00;;;;;;491928;242;1111;-74
2022/10/25 10:50:05;;;;;;;;;;;24.10;46.00;;;;;;491552;242;1227;-74
2022/10/25 10:52:07;;;;;;;;;;;24.10;46.00;;;;;;491541;242;1054;-74
2022/10/25 10:54:08;;;;;;;;;;;24.10;46.00;;;;;;491322;242;1161;-74
2022/10/25 10:56:09;;;;;;;;;;;24.10;46.00;;;;;;491609;242;1135;-74
2022/10/25 10:58:11;;;;;;;;;;;24.10;46.00;;;;;;491757;242;1167;-74
2022/10/25 11:00:12;;;;;;;;;;;24.10;46.10;;;;;;491189;242;1105;-74
2022/10/25 11:02:13;;;;;;;;;;;24.10;46.00;;;;;;491619;242;1223;-74
2022/10/25 11:04:15;;;;;;;;;;;24.10;46.10;;;;;;491762;242;1196;-74
2022/10/25 11:06:16;;;;;;;;;;;24.10;46.10;;;;;;491656;242;2203;-74
2022/10/25 11:08:17;;;;;;;;;;;24.10;46.00;;;;;;491555;242;1245;-74
2022/10/25 11:10:19;;;;;;;;;;;24.10;46.00;;;;;;491376;242;1224;-74
2022/10/25 11:12:21;;;;;;;;;;;24.20;46.00;;;;;;491465;242;1478;-74
2022/10/25 11:14:21;;;;;;;;;;;24.10;46.00;;;;;;491404;242;1422;-74
2022/10/25 11:16:23;;;;;;;;;;;24.10;46.20;;;;;;491367;242;1093;-74
2022/10/25 11:18:24;;;;;;;;;;;24.10;46.30;;;;;;491496;242;1165;-74
2022/10/25 11:20:25;;;;;;;;;;;24.20;46.20;;;;;;491412;242;1266;-73
2022/10/25 11:22:27;;;;;;;;;;;24.10;46.20;;;;;;491405;242;1175;-74
2022/10/25 11:24:28;;;;;;;;;;;24.10;46.30;;;;;;491650;242;1215;-74
2022/10/25 11:26:29;;;;;;;;;;;24.20;46.30;;;;;;492262;242;2183;-74
2022/10/25 11:28:30;;;;;;;;;;;24.20;46.20;;;;;;491510;242;1129;-74
2022/10/25 11:30:32;;;;;;;;;;;24.20;46.30;;;;;;491191;242;1225;-74
2022/10/25 11:32:33;;;;;;;;;;;24.20;46.20;;;;;;491416;242;1196;-74
2022/10/25 11:34:34;;;;;;;;;;;24.20;46.10;;;;;;491416;242;1155;-74
2022/10/25 11:36:36;;;;;;;;;;;24.20;46.00;;;;;;491288;242;1143;-74
2022/10/25 11:38:37;;;;;;;;;;;24.20;46.10;;;;;;491360;242;1125;-74
2022/10/25 11:40:38;;;;;;;;;;;24.20;46.10;;;;;;491299;242;1267;-74
2022/10/25 11:42:40;;;;;;;;;;;24.20;46.10;;;;;;491329;242;1214;-74
2022/10/25 11:44:41;;;;;;;;;;;24.20;46.10;;;;;;491347;242;1173;-74
2022/10/25 11:46:42;;;;;;;;;;;24.20;45.90;;;;;;491664;242;2113;-74
2022/10/25 11:48:44;;;;;;;;;;;24.20;45.70;;;;;;491747;242;1417;-74
2022/10/25 11:50:45;;;;;;;;;;;24.20;45.60;;;;;;491444;242;1288;-74
2022/10/25 11:52:47;;;;;;;;;;;24.30;45.30;;;;;;492217;242;1105;-74
2022/10/25 11:54:48;;;;;;;;;;;24.30;45.00;;;;;;491377;242;1179;-74
2022/10/25 11:56:49;;;;;;;;;;;24.30;44.90;;;;;;491595;242;1145;-74